• Join FlightAware (Why Join?)
  • Login
  • US Flag 
06:14AM EDT


 

Airport Tracker/Info


-or-


 

Live Flight TrackerFlight Track Log ✈ N509QS ✈ 12-May-2013 ✈ KBDL - KHPN

Flight Track Log - Related Links

Times and Time Zones

All times are in EDT time to prevent confusion due to time zone crossing. See the N509QS flight status page for this flight to view local times or setup timezone preferences in your user account.

Time Position Orientation Groundspeed Altitude Reporting Facility
EDT Latitude Longitude Course Direction KTS MPH feet Rate Location/Type
01:32PM 41.9436 -72.6772 51° Northeast 200 230 1,100  Level Boston Center
01:32PM 41.9667 -72.6383 51° Northeast 217 250 3,100 3,840 Climbing Boston Center
01:33PM 41.9792 -72.5964 68° East 249 287 5,400 4,260 Climbing Boston Center
01:33PM 42.0044 -72.5461 56° Northeast 282 325 7,400 4,080 Climbing Boston Center
01:34PM 42.0378 -72.5239 26° Northeast 307 353 9,600 2,580 Climbing Boston Center
01:34PM 42.0753 -72.5294 354° North 319 367 10,000 360 Climbing Boston Center
01:35PM 42.1044 -72.5911 303° West 323 372 10,000  Level Boston Center
01:35PM 42.1083 -72.6417 276° West 321 369 10,000  Level Boston Center
01:36PM 42.0936 -72.6947 250° West 311 358 10,000  Level Boston Center
01:38PM 42.0411 -72.8678 248° West 314 361 10,000 480 Level Boston Center
01:39PM 42.0117 -72.9625 247° West 296 341 11,400 900 Climbing Boston Center
01:40PM 41.9506 -73.0681 232° Southwest 296 341 12,000 300 Climbing Boston Center
01:41PM 41.8794 -73.1289 213° Southwest 305 351 12,000  Level Boston Center
01:42PM 41.8183 -73.2089 224° Southwest 313 360 12,000  Level Boston Center
01:43PM 41.7678 -73.3028 234° Southwest 313 360 12,000 -180 Level Boston Center
01:44PM 41.7233 -73.3831 233° Southwest 313 360 11,700 -660 Descending Boston Center
01:45PM 41.6725 -73.4656 230° Southwest 282 325 10,700 -900 Descending Boston Center
01:46PM 41.6344 -73.5372 235° Southwest 272 313 9,900 -900 Descending Boston Center
01:47PM 41.5500 -73.6667 229° Southwest 260 299 8,300 -960 Descending New York TRACON
01:48PM 41.5167 -73.7333 236° Southwest 255 293 7,500 -1,020 Descending New York TRACON
01:49PM 41.4667 -73.8167 231° Southwest 251 289 6,400 -1,200 Descending New York TRACON
01:50PM 41.4167 -73.8500 207° Southwest 256 295 5,100 -720 Descending New York TRACON
01:51PM 41.3500 -73.8000 151° Southeast 274 315 5,000 -60 Descending New York TRACON
01:52PM 41.2833 -73.7500 151° Southeast 264 304 5,000  Level New York TRACON
01:53PM 41.2333 -73.7000 143° Southeast 249 287 5,000 -480 Level New York TRACON
01:54PM 41.1667 -73.6333 143° Southeast 259 298 4,100 -900 Descending New York TRACON
01:55PM 41.1167 -73.5833 143° Southeast 235 270 3,200 -960 Descending New York TRACON
01:56PM 41.0667 -73.5667 166° South 192 221 2,300 -600 Descending New York TRACON
01:57PM 41.0167 -73.5500 166° South 180 207 2,000 -180 Descending New York TRACON
01:58PM 40.9833 -73.5833 217° Southwest 161 185 2,000 -180 Level New York TRACON
01:59PM 40.9833 -73.6333 270° West 143 165 1,700 -300 Descending New York TRACON
02:00PM 41.0167 -73.6667 323° Northwest 154 177 1,500 -480 Descending New York TRACON
02:01PM 41.0500 -73.6833 339° North 123 142 800 -720 Descending New York TRACON
02:03PM 41.0667 -73.7000 242° Southwest  Level FlightAware Approximate
02:10PM 41.0669 -73.7076 242° Southwest  Level Estimated
02:11PM 41.0667 -73.7000 242° Southwest  Level FlightAware Approximate